Terminal Aerodrome Forecast
Issued by NWS

Home | Current Version | Previous Version | Text Only | Print | Product List | Glossary On
Versions: 1 2 3 4 5 6 7 8 9 10 11 12 13 14 15
908
FTUS41 KILN 270520
TAFLCK
TAF
KLCK 270520Z 2706/2806 21005KT P6SM VCTS SCT050CB BKN250
     FM270700 21004KT P6SM SCT050 BKN250
     FM271000 21003KT 4SM BR SKC
     FM271300 28004KT P6SM SKC
     FM271700 32006KT P6SM FEW050
     FM280000 00000KT P6SM SKC
      AMD NOT SKED=

USA.gov is the U.S. government's official web portal to all federal, state and local government web resources and services.